Time;durP1;ratioP1;P1;durP2;ratioP2;P2;SDS_P1;SDS_P2;PMS_P1;PMS_P2;Temp;Humidity;BMP_temperature;BMP_pressure;BME280_temperature;BME280_humidity;BME280_pressure;Samples;Min_cycle;Max_cycle;Signal;HPM_P1;HPM_P2
2023/06/25 00:00:27;;;;;;;9.23;3.30;;;25.90;61.90;;;;;;4993588;28;20120;-81
2023/06/25 00:02:53;;;;;;;7.57;3.33;;;25.80;61.80;;;;;;4995726;28;20030;-81
2023/06/25 00:05:19;;;;;;;8.55;3.40;;;25.70;61.60;;;;;;4997032;28;20352;-80
2023/06/25 00:07:45;;;;;;;6.15;3.17;;;25.70;61.50;;;;;;4993595;28;20058;-81
2023/06/25 00:10:11;;;;;;;6.32;3.03;;;25.60;61.70;;;;;;4993608;28;20069;-81
2023/06/25 00:12:37;;;;;;;6.47;3.10;;;25.60;61.50;;;;;;4975955;28;20419;-80
2023/06/25 00:15:03;;;;;;;6.78;2.90;;;25.50;61.10;;;;;;4993574;28;20369;-81
2023/06/25 00:17:29;;;;;;;10.68;3.33;;;25.50;61.60;;;;;;4993495;28;20494;-81
2023/06/25 00:19:56;;;;;;;4.93;3.05;;;25.50;61.20;;;;;;4993413;28;20023;-81
2023/06/25 00:22:22;;;;;;;5.80;3.20;;;25.50;61.50;;;;;;4993555;28;20126;-80
2023/06/25 00:24:48;;;;;;;6.07;3.08;;;25.50;61.40;;;;;;4993699;28;20057;-79
2023/06/25 00:27:13;;;;;;;6.78;2.88;;;25.40;61.20;;;;;;4993417;28;20071;-80
2023/06/25 00:29:39;;;;;;;6.95;3.00;;;25.40;61.50;;;;;;4993507;28;20084;-80
2023/06/25 00:32:05;;;;;;;4.97;3.00;;;25.40;61.20;;;;;;4992842;28;20077;-79
2023/06/25 00:34:31;;;;;;;5.95;3.17;;;25.40;61.70;;;;;;4993647;28;20030;-81
2023/06/25 00:36:57;;;;;;;5.53;2.83;;;25.40;61.40;;;;;;4993560;28;20104;-82
2023/06/25 00:39:23;;;;;;;6.13;2.65;;;25.40;61.00;;;;;;4993157;28;20472;-80
2023/06/25 00:41:49;;;;;;;5.53;2.85;;;25.40;61.10;;;;;;4993099;28;20154;-80
2023/06/25 00:44:14;;;;;;;5.35;2.85;;;25.30;61.20;;;;;;4993074;28;20038;-80
2023/06/25 00:46:40;;;;;;;6.45;2.92;;;25.30;61.00;;;;;;4993256;28;20369;-81
2023/06/25 00:49:06;;;;;;;4.68;2.70;;;25.30;61.00;;;;;;4993169;28;20038;-80
2023/06/25 00:51:35;;;;;;;8.60;2.85;;;25.30;61.20;;;;;;4993175;28;20125;-80
2023/06/25 00:54:05;;;;;;;6.75;3.05;;;25.30;61.00;;;;;;4993093;28;20037;-80
2023/06/25 00:56:34;;;;;;;4.72;2.45;;;25.20;60.70;;;;;;4993663;28;20404;-80
2023/06/25 00:59:02;;;;;;;5.97;2.80;;;25.20;60.50;;;;;;4993504;28;20121;-80
2023/06/25 01:01:33;;;;;;;7.00;2.85;;;25.10;60.60;;;;;;4993450;28;20137;-81
2023/06/25 01:04:25;;;;;;;6.38;2.85;;;25.20;61.30;;;;;;4998424;28;20103;-80
2023/06/25 01:06:55;;;;;;;6.43;3.15;;;25.20;60.20;;;;;;4996403;28;20062;-80
2023/06/25 01:09:21;;;;;;;7.63;3.08;;;25.10;60.40;;;;;;4994928;28;20038;-78
2023/06/25 01:11:58;;;;;;;10.55;2.78;;;25.10;60.80;;;;;;4993109;28;20145;-81
2023/06/25 01:14:28;;;;;;;5.82;2.78;;;25.10;60.60;;;;;;4995298;28;20037;-81
2023/06/25 01:16:54;;;;;;;5.57;2.60;;;25.00;61.10;;;;;;4997251;28;20027;-79
2023/06/25 01:19:25;;;;;;;6.50;2.70;;;24.90;61.20;;;;;;4993872;28;20128;-81
2023/06/25 01:21:52;;;;;;;5.70;2.50;;;24.80;61.00;;;;;;4992785;28;20041;-79
2023/06/25 01:24:17;;;;;;;5.40;2.97;;;24.80;61.50;;;;;;4992485;28;20047;-80
2023/06/25 01:26:44;;;;;;;7.60;2.78;;;24.80;61.50;;;;;;4992680;28;20126;-79
2023/06/25 01:29:10;;;;;;;6.47;2.67;;;24.80;61.50;;;;;;4992489;28;20042;-80
2023/06/25 01:31:35;;;;;;;6.30;3.47;;;24.80;61.60;;;;;;4992524;28;20116;-75
2023/06/25 01:34:02;;;;;;;5.32;3.25;;;24.90;61.70;;;;;;4992160;28;20034;-79
2023/06/25 01:36:27;;;;;;;6.32;2.83;;;24.90;61.70;;;;;;4975377;28;20479;-79
2023/06/25 01:38:53;;;;;;;5.50;2.90;;;24.90;61.60;;;;;;4992523;28;20089;-80
2023/06/25 01:41:18;;;;;;;6.88;2.90;;;24.80;61.70;;;;;;4992458;28;20039;-79
2023/06/25 01:43:44;;;;;;;5.30;2.67;;;24.80;61.70;;;;;;4995271;28;20306;-79
2023/06/25 01:46:10;;;;;;;5.78;2.80;;;24.80;61.50;;;;;;4996061;28;20038;-80
2023/06/25 01:48:35;;;;;;;5.10;2.72;;;24.80;61.40;;;;;;4995980;28;20052;-79
2023/06/25 01:51:01;;;;;;;5.88;2.92;;;24.70;61.30;;;;;;4978557;28;20076;-79
2023/06/25 01:53:27;;;;;;;7.13;2.60;;;24.70;61.40;;;;;;4996222;28;20034;-81
2023/06/25 01:55:52;;;;;;;6.05;2.72;;;24.70;60.90;;;;;;4995789;28;20038;-80
2023/06/25 01:58:18;;;;;;;7.18;2.70;;;24.60;60.80;;;;;;4995494;28;20397;-80
2023/06/25 02:00:44;;;;;;;6.82;3.03;;;24.60;61.00;;;;;;4995865;28;20096;-80
2023/06/25 02:03:09;;;;;;;4.43;2.30;;;24.60;61.00;;;;;;4978312;28;20042;-80
2023/06/25 02:05:35;;;;;;;4.63;2.50;;;24.50;60.80;;;;;;4995819;28;20117;-80
2023/06/25 02:08:01;;;;;;;4.80;2.58;;;24.50;60.90;;;;;;4995579;28;20441;-80
2023/06/25 02:10:28;;;;;;;6.25;2.60;;;24.40;60.80;;;;;;4995569;28;20039;-79
2023/06/25 02:12:54;;;;;;;5.85;2.55;;;24.30;61.20;;;;;;4995758;28;20061;-79
2023/06/25 02:15:20;;;;;;;4.63;2.50;;;24.20;61.30;;;;;;4995954;28;20046;-78
2023/06/25 02:17:45;;;;;;;8.45;2.60;;;24.20;61.40;;;;;;4996077;28;20070;-80
2023/06/25 02:20:11;;;;;;;6.35;2.67;;;24.10;61.50;;;;;;4995487;28;20027;-80
2023/06/25 02:22:37;;;;;;;5.35;2.72;;;24.00;61.60;;;;;;4995632;28;20027;-80
2023/06/25 02:25:03;;;;;;;4.97;2.47;;;24.10;61.70;;;;;;4995659;28;20040;-80
2023/06/25 02:27:28;;;;;;;6.78;2.70;;;24.20;61.80;;;;;;4995336;28;20035;-81
2023/06/25 02:29:54;;;;;;;5.53;2.50;;;24.20;61.80;;;;;;4995473;28;20484;-79
2023/06/25 02:32:19;;;;;;;5.90;2.45;;;24.10;61.40;;;;;;4995006;28;20050;-79
2023/06/25 02:34:45;;;;;;;6.13;2.50;;;23.90;61.60;;;;;;4996361;28;20091;-80
2023/06/25 02:37:15;;;;;;;5.57;2.60;;;23.90;62.10;;;;;;4996760;28;20042;-79
2023/06/25 02:39:43;;;;;;;4.10;2.17;;;23.90;62.10;;;;;;4996057;28;20140;-81
2023/06/25 02:42:09;;;;;;;4.57;2.55;;;23.90;62.50;;;;;;4995164;28;20038;-78
2023/06/25 02:44:35;;;;;;;6.80;2.80;;;23.90;62.30;;;;;;4994950;28;20504;-81
2023/06/25 02:47:01;;;;;;;6.93;2.40;;;23.90;62.20;;;;;;4995029;28;20054;-80
2023/06/25 02:49:27;;;;;;;6.80;2.70;;;23.80;62.50;;;;;;4994950;28;20041;-79
2023/06/25 02:51:53;;;;;;;6.65;2.20;;;23.90;62.50;;;;;;4994947;28;20049;-78
2023/06/25 02:54:18;;;;;;;7.97;2.80;;;23.90;62.20;;;;;;4993788;28;20034;-79
2023/06/25 02:56:44;;;;;;;3.78;2.22;;;23.90;62.60;;;;;;4994734;28;20045;-80
2023/06/25 02:59:10;;;;;;;6.50;2.80;;;23.90;62.70;;;;;;4994935;28;20035;-78
2023/06/25 03:01:35;;;;;;;7.20;2.50;;;23.90;62.60;;;;;;4994969;28;20436;-79
2023/06/25 03:04:01;;;;;;;5.80;2.55;;;23.90;62.60;;;;;;4994346;28;20058;-79
2023/06/25 03:06:27;;;;;;;6.22;2.78;;;23.90;62.50;;;;;;4994864;28;20085;-79
2023/06/25 03:08:52;;;;;;;6.32;2.85;;;23.90;62.70;;;;;;4995247;28;20496;-79
2023/06/25 03:11:18;;;;;;;4.97;2.55;;;23.80;63.10;;;;;;4994656;28;20125;-80
2023/06/25 03:13:44;;;;;;;4.25;2.30;;;23.80;62.60;;;;;;4994280;28;20030;-79
2023/06/25 03:16:09;;;;;;;5.35;2.50;;;23.70;62.70;;;;;;4994757;28;20038;-79
2023/06/25 03:18:35;;;;;;;7.28;2.47;;;23.70;63.60;;;;;;4994776;28;20519;-79
2023/06/25 03:21:01;;;;;;;6.47;2.55;;;23.70;63.20;;;;;;4995701;28;20058;-78
2023/06/25 03:23:26;;;;;;;5.75;2.67;;;23.70;62.90;;;;;;4994710;28;20038;-79
2023/06/25 03:25:52;;;;;;;4.40;2.30;;;23.70;63.30;;;;;;4994408;28;20042;-78
2023/06/25 03:28:18;;;;;;;5.75;2.60;;;23.70;63.00;;;;;;4993775;28;20034;-79
2023/06/25 03:30:46;;;;;;;6.80;2.90;;;23.60;63.20;;;;;;4993938;28;20073;-79
2023/06/25 03:33:12;;;;;;;5.85;2.42;;;23.60;63.10;;;;;;4994304;28;20125;-79
2023/06/25 03:35:37;;;;;;;5.35;2.70;;;23.60;63.10;;;;;;4994361;28;20069;-81
2023/06/25 03:38:03;;;;;;;8.18;3.17;;;23.60;63.20;;;;;;4993984;28;20106;-80
2023/06/25 03:40:29;;;;;;;7.00;2.65;;;23.60;63.40;;;;;;4994067;28;20097;-79
2023/06/25 03:42:54;;;;;;;5.65;2.50;;;23.50;63.40;;;;;;4993987;28;20033;-79
2023/06/25 03:45:20;;;;;;;5.35;2.75;;;23.50;63.40;;;;;;4993844;28;20048;-79
2023/06/25 03:47:45;;;;;;;6.85;2.60;;;23.60;63.70;;;;;;4993772;28;20027;-79
2023/06/25 03:50:11;;;;;;;5.20;2.38;;;23.50;63.30;;;;;;4993752;28;20109;-80
2023/06/25 03:52:37;;;;;;;6.45;2.60;;;23.50;63.70;;;;;;4994512;28;20501;-79
2023/06/25 03:55:03;;;;;;;5.22;2.88;;;23.50;63.70;;;;;;4993973;28;20033;-79
2023/06/25 03:57:29;;;;;;;6.43;3.22;;;23.50;63.50;;;;;;4993991;28;20034;-79
2023/06/25 03:59:55;;;;;;;4.78;2.70;;;23.40;63.80;;;;;;4993583;28;20083;-79
2023/06/25 04:02:20;;;;;;;9.93;2.83;;;23.40;63.90;;;;;;4993833;28;20516;-79
2023/06/25 04:04:46;;;;;;;7.32;3.05;;;23.50;64.00;;;;;;4993616;28;20426;-79
2023/06/25 04:07:12;;;;;;;5.00;2.63;;;23.60;64.30;;;;;;4993620;28;20113;-79
2023/06/25 04:09:37;;;;;;;5.63;2.60;;;23.60;64.30;;;;;;4975921;28;20034;-80
2023/06/25 04:12:03;;;;;;;7.30;2.80;;;23.60;63.60;;;;;;4993490;28;20050;-79
2023/06/25 04:14:29;;;;;;;9.25;2.70;;;23.70;64.20;;;;;;4993565;28;20066;-78
2023/06/25 04:16:55;;;;;;;6.97;2.72;;;23.70;64.30;;;;;;4993387;28;20122;-78
2023/06/25 04:19:20;;;;;;;4.65;2.58;;;23.70;64.50;;;;;;4993237;28;20034;-80
2023/06/25 04:21:46;;;;;;;5.00;2.88;;;23.70;64.40;;;;;;4993293;28;20035;-79
2023/06/25 04:24:12;;;;;;;5.53;2.63;;;23.80;64.30;;;;;;4993226;28;20057;-79
2023/06/25 04:26:37;;;;;;;6.82;2.60;;;23.70;64.30;;;;;;4993458;28;20038;-78
2023/06/25 04:29:03;;;;;;;8.20;2.85;;;23.70;64.30;;;;;;4993318;28;20121;-78
2023/06/25 04:31:29;;;;;;;8.02;2.65;;;23.70;64.20;;;;;;4992727;28;20038;-79
2023/06/25 04:33:54;;;;;;;5.22;2.53;;;23.70;64.20;;;;;;4993185;28;20074;-78
2023/06/25 04:36:21;;;;;;;7.25;2.70;;;23.70;64.40;;;;;;4993193;28;20045;-79
2023/06/25 04:38:46;;;;;;;5.45;2.78;;;23.70;64.30;;;;;;4975278;28;20080;-79
2023/06/25 04:41:12;;;;;;;7.53;3.25;;;23.70;64.30;;;;;;4992788;28;20042;-78
2023/06/25 04:43:38;;;;;;;7.32;2.70;;;23.70;64.20;;;;;;4992879;28;20192;-78
2023/06/25 04:46:03;;;;;;;6.60;2.67;;;23.60;64.50;;;;;;4993246;28;20031;-78
2023/06/25 04:48:29;;;;;;;4.70;2.40;;;23.70;64.50;;;;;;4992997;28;20392;-79
2023/06/25 04:50:55;;;;;;;6.50;2.83;;;23.60;64.20;;;;;;4992476;28;20042;-79
2023/06/25 04:53:20;;;;;;;7.50;2.45;;;23.60;64.20;;;;;;4992538;28;20109;-79
2023/06/25 04:55:46;;;;;;;6.32;2.60;;;23.60;64.30;;;;;;4992610;28;20061;-77
2023/06/25 04:58:12;;;;;;;7.22;2.83;;;23.60;64.40;;;;;;4992543;28;20041;-79
2023/06/25 05:00:37;;;;;;;8.10;2.70;;;23.50;64.50;;;;;;4992416;28;20034;-79
2023/06/25 05:03:03;;;;;;;7.22;2.42;;;23.50;64.50;;;;;;4992805;28;20488;-78
2023/06/25 05:05:29;;;;;;;6.30;2.25;;;23.60;64.70;;;;;;4998361;28;20053;-79
2023/06/25 05:07:55;;;;;;;8.77;3.08;;;23.70;64.70;;;;;;4995213;28;20038;-81
2023/06/25 05:10:21;;;;;;;5.00;2.75;;;23.80;64.40;;;;;;4992469;28;20030;-80
2023/06/25 05:12:47;;;;;;;4.57;2.58;;;23.90;64.50;;;;;;4992204;28;20066;-79
2023/06/25 05:15:13;;;;;;;5.30;3.03;;;24.00;64.60;;;;;;4992736;28;20130;-80
2023/06/25 05:17:38;;;;;;;5.57;2.70;;;24.10;64.10;;;;;;4995766;28;20035;-81
2023/06/25 05:20:05;;;;;;;6.32;3.10;;;24.30;63.60;;;;;;4998975;28;20337;-80
2023/06/25 05:22:30;;;;;;;6.20;2.90;;;24.50;63.30;;;;;;4999025;28;20034;-79
2023/06/25 05:24:56;;;;;;;7.25;2.88;;;24.80;62.80;;;;;;4999217;28;20027;-79
2023/06/25 05:27:22;;;;;;;5.55;2.85;;;25.20;62.00;;;;;;4999767;28;20045;-79
2023/06/25 05:29:47;;;;;;;4.65;2.53;;;25.60;61.20;;;;;;4998984;28;20034;-80
2023/06/25 05:32:13;;;;;;;5.30;2.80;;;25.80;60.70;;;;;;4981348;28;20054;-79
2023/06/25 05:34:39;;;;;;;6.00;2.80;;;26.10;60.20;;;;;;5000154;28;20039;-80
2023/06/25 05:37:05;;;;;;;7.47;2.97;;;26.40;59.60;;;;;;4998821;28;20039;-80
2023/06/25 05:39:31;;;;;;;5.25;2.95;;;26.60;58.90;;;;;;4998326;28;20039;-77
2023/06/25 05:41:57;;;;;;;7.40;2.55;;;26.90;58.00;;;;;;4998150;28;20034;-79
2023/06/25 05:44:24;;;;;;;5.93;2.67;;;27.20;57.50;;;;;;4998264;28;20038;-80
2023/06/25 05:46:50;;;;;;;7.75;2.60;;;27.40;56.90;;;;;;4998221;28;20035;-79
2023/06/25 05:49:15;;;;;;;6.55;3.35;;;27.50;56.40;;;;;;4998282;28;20046;-79
2023/06/25 05:51:41;;;;;;;6.43;3.08;;;27.70;56.10;;;;;;4997965;28;20111;-81
2023/06/25 05:54:07;;;;;;;4.78;2.67;;;27.90;55.70;;;;;;4998348;28;20094;-79
2023/06/25 05:56:33;;;;;;;6.90;2.72;;;27.90;55.60;;;;;;4998300;28;20047;-79
2023/06/25 05:58:58;;;;;;;5.72;2.85;;;28.10;55.00;;;;;;4998354;28;20499;-79
2023/06/25 06:01:25;;;;;;;5.88;2.63;;;28.20;54.60;;;;;;4998010;28;20030;-80
2023/06/25 06:03:51;;;;;;;4.68;2.55;;;28.20;54.50;;;;;;4997934;28;20496;-79
2023/06/25 06:06:17;;;;;;;5.70;2.88;;;28.30;54.30;;;;;;4998124;28;20118;-81
2023/06/25 06:08:43;;;;;;;6.30;2.70;;;28.50;54.40;;;;;;4997948;28;20109;-79
2023/06/25 06:11:10;;;;;;;6.03;2.80;;;28.50;54.10;;;;;;4997966;28;20046;-79
2023/06/25 06:13:39;;;;;;;5.28;2.55;;;28.50;54.50;;;;;;4980937;28;20038;-79
2023/06/25 06:16:05;;;;;;;7.70;2.90;;;28.60;54.60;;;;;;4998105;28;20137;-79
2023/06/25 06:18:30;;;;;;;9.05;3.25;;;28.60;54.60;;;;;;4998398;28;20041;-79
2023/06/25 06:20:56;;;;;;;6.38;2.95;;;28.70;53.40;;;;;;4998373;28;20038;-78
2023/06/25 06:23:23;;;;;;;7.45;2.63;;;28.90;53.20;;;;;;4998067;28;20031;-80
2023/06/25 06:25:49;;;;;;;4.90;2.88;;;29.00;53.70;;;;;;4999216;28;20158;-80
2023/06/25 06:28:15;;;;;;;7.47;2.92;;;29.30;53.00;;;;;;4997952;28;20150;-78
2023/06/25 06:30:40;;;;;;;5.70;3.05;;;29.60;52.60;;;;;;4994152;28;20045;-79
2023/06/25 06:33:06;;;;;;;6.05;2.88;;;29.80;52.10;;;;;;4995100;28;20073;-80
2023/06/25 06:35:32;;;;;;;5.43;2.65;;;29.70;51.90;;;;;;4995194;28;20041;-80
2023/06/25 06:37:57;;;;;;;5.25;2.80;;;29.80;51.70;;;;;;4995167;28;20038;-81
2023/06/25 06:40:23;;;;;;;6.07;3.13;;;29.80;51.80;;;;;;4995112;28;20030;-80
2023/06/25 06:42:49;;;;;;;6.35;4.35;;;29.90;51.80;;;;;;4994708;28;20034;-79
2023/06/25 06:45:14;;;;;;;6.25;2.58;;;29.90;51.70;;;;;;4994653;28;20090;-79
2023/06/25 06:47:40;;;;;;;4.20;2.80;;;29.80;51.70;;;;;;4994980;28;20125;-79
2023/06/25 06:50:06;;;;;;;5.95;3.03;;;29.70;51.60;;;;;;4994914;28;20037;-81
2023/06/25 06:52:32;;;;;;;5.35;2.80;;;29.80;51.80;;;;;;4994726;28;20057;-79
2023/06/25 06:54:58;;;;;;;5.57;2.80;;;29.70;51.70;;;;;;4977380;28;20030;-80
2023/06/25 06:57:23;;;;;;;6.63;2.88;;;29.70;51.90;;;;;;4994685;28;20041;-80
2023/06/25 06:59:49;;;;;;;6.25;2.70;;;29.90;51.70;;;;;;4994689;28;20081;-80
2023/06/25 07:02:15;;;;;;;6.93;3.00;;;30.00;51.70;;;;;;4994661;28;20043;-79
2023/06/25 07:04:40;;;;;;;6.13;3.15;;;30.10;51.60;;;;;;4994736;28;20066;-80
2023/06/25 07:07:06;;;;;;;4.90;3.00;;;30.20;51.60;;;;;;4976703;28;20047;-80
2023/06/25 07:09:32;;;;;;;6.95;2.90;;;30.20;51.70;;;;;;4994107;28;20058;-80
2023/06/25 07:11:58;;;;;;;6.50;2.92;;;30.10;51.80;;;;;;4994487;28;20333;-80
2023/06/25 07:14:23;;;;;;;7.10;3.08;;;30.00;52.00;;;;;;4994554;28;20030;-79
2023/06/25 07:16:49;;;;;;;8.55;2.95;;;30.00;51.90;;;;;;4994419;28;20031;-79
2023/06/25 07:19:15;;;;;;;6.22;2.65;;;29.90;52.30;;;;;;4994377;28;20033;-80
2023/06/25 07:21:40;;;;;;;7.28;2.78;;;29.90;51.70;;;;;;4994345;28;20068;-81
2023/06/25 07:24:06;;;;;;;8.73;3.13;;;29.90;52.00;;;;;;4994163;28;20030;-80
2023/06/25 07:26:32;;;;;;;5.95;2.60;;;30.00;51.80;;;;;;4994282;28;20440;-81
2023/06/25 07:28:58;;;;;;;5.97;2.90;;;30.10;51.90;;;;;;4993771;28;20049;-80
2023/06/25 07:31:23;;;;;;;6.60;3.10;;;30.20;51.70;;;;;;4976497;28;20069;-79
2023/06/25 07:33:49;;;;;;;8.07;3.20;;;30.00;51.70;;;;;;4994078;28;20485;-78
2023/06/25 07:36:16;;;;;;;6.28;3.33;;;30.20;51.80;;;;;;4994005;28;20511;-80
2023/06/25 07:38:42;;;;;;;6.97;3.30;;;30.20;51.50;;;;;;4993772;28;20030;-79
2023/06/25 07:41:07;;;;;;;5.57;3.00;;;30.20;51.50;;;;;;4997161;28;20110;-79
2023/06/25 07:43:33;;;;;;;5.65;2.70;;;30.30;51.70;;;;;;5001174;28;20492;-79
2023/06/25 07:45:59;;;;;;;5.78;3.00;;;30.40;51.30;;;;;;4996943;28;20508;-81
2023/06/25 07:48:24;;;;;;;6.43;2.92;;;30.40;51.50;;;;;;4997286;28;20485;-78
2023/06/25 07:50:51;;;;;;;6.68;2.97;;;30.40;51.50;;;;;;4993975;28;20039;-79
2023/06/25 07:53:17;;;;;;;8.23;3.25;;;30.40;51.50;;;;;;4993860;28;20034;-79
2023/06/25 07:55:45;;;;;;;5.40;3.03;;;30.50;51.30;;;;;;4993905;28;20101;-80
2023/06/25 07:58:11;;;;;;;6.15;2.83;;;30.40;51.30;;;;;;4993463;28;20385;-79
2023/06/25 08:00:36;;;;;;;9.65;3.80;;;30.50;51.20;;;;;;4993239;28;20349;-79
2023/06/25 08:03:03;;;;;;;6.32;3.05;;;30.50;51.30;;;;;;4993697;28;20034;-79
2023/06/25 08:05:28;;;;;;;6.00;2.90;;;30.30;51.40;;;;;;4993390;28;20030;-79
2023/06/25 08:07:56;;;;;;;6.30;3.20;;;30.30;51.50;;;;;;4993229;28;20053;-78
2023/06/25 08:10:22;;;;;;;6.43;3.03;;;30.30;51.30;;;;;;4993074;28;20027;-80
2023/06/25 08:12:48;;;;;;;6.68;3.35;;;30.30;51.20;;;;;;4993128;28;20042;-79
2023/06/25 08:15:14;;;;;;;5.18;2.60;;;30.30;51.20;;;;;;4993041;28;20468;-79
2023/06/25 08:17:40;;;;;;;10.27;3.50;;;30.10;51.20;;;;;;4993167;28;20153;-79
2023/06/25 08:20:06;;;;;;;5.38;2.90;;;30.00;51.00;;;;;;4993078;28;20435;-78
2023/06/25 08:22:31;;;;;;;7.28;3.53;;;29.90;51.10;;;;;;4993043;28;20034;-79
2023/06/25 08:24:57;;;;;;;5.55;2.83;;;29.90;51.20;;;;;;4993104;28;20128;-79
2023/06/25 08:27:22;;;;;;;9.02;3.20;;;29.80;51.40;;;;;;4992999;28;20072;-79
2023/06/25 08:29:48;;;;;;;7.38;3.28;;;29.70;51.80;;;;;;4993215;28;20038;-80
2023/06/25 08:32:14;;;;;;;8.32;3.20;;;29.70;52.00;;;;;;4993269;28;20117;-79
2023/06/25 08:34:40;;;;;;;7.85;3.42;;;29.80;52.00;;;;;;4993109;28;20034;-80
2023/06/25 08:37:06;;;;;;;7.55;3.60;;;29.80;51.80;;;;;;4993207;28;20122;-79
2023/06/25 08:39:31;;;;;;;8.18;3.47;;;29.80;51.80;;;;;;4993468;28;20101;-78
2023/06/25 08:41:58;;;;;;;10.02;3.97;;;29.80;52.00;;;;;;4993273;28;20038;-81
2023/06/25 08:44:23;;;;;;;11.65;4.50;;;29.80;51.80;;;;;;4997591;28;20457;-79
2023/06/25 08:46:50;;;;;;;7.90;3.88;;;29.70;52.00;;;;;;4993612;28;20049;-79
2023/06/25 08:49:16;;;;;;;6.05;3.25;;;29.60;52.10;;;;;;4993057;28;20026;-79
2023/06/25 08:51:42;;;;;;;6.88;3.33;;;29.60;52.20;;;;;;4992116;28;20035;-80
2023/06/25 08:54:08;;;;;;;6.22;3.20;;;29.60;53.00;;;;;;4992992;28;20081;-81
2023/06/25 08:56:35;;;;;;;6.47;2.92;;;29.50;51.90;;;;;;4993243;28;20077;-78
2023/06/25 08:59:00;;;;;;;7.05;3.20;;;29.40;52.30;;;;;;4993483;28;20050;-81
2023/06/25 09:01:26;;;;;;;9.77;3.05;;;29.50;52.40;;;;;;4992465;28;20038;-78
2023/06/25 09:03:53;;;;;;;8.07;3.30;;;29.50;52.10;;;;;;4992388;28;20034;-79
2023/06/25 09:06:19;;;;;;;6.93;3.30;;;29.50;52.50;;;;;;4992535;28;20054;-80
2023/06/25 09:08:45;;;;;;;6.90;3.15;;;29.50;52.30;;;;;;4992624;28;20427;-80
2023/06/25 09:11:12;;;;;;;6.72;3.00;;;29.50;52.00;;;;;;4992216;28;20065;-80
2023/06/25 09:13:39;;;;;;;7.15;3.13;;;29.40;52.00;;;;;;4992112;28;20038;-80
2023/06/25 09:16:09;;;;;;;7.80;3.30;;;29.40;52.10;;;;;;4992374;28;20066;-79
2023/06/25 09:18:35;;;;;;;5.88;3.08;;;29.50;52.10;;;;;;4992149;28;20030;-80
2023/06/25 09:21:06;;;;;;;7.28;3.10;;;29.60;52.10;;;;;;4992302;28;20034;-80
2023/06/25 09:23:32;;;;;;;6.40;3.10;;;29.60;51.80;;;;;;4992516;28;20045;-81
2023/06/25 09:26:05;;;;;;;7.95;3.90;;;29.70;51.80;;;;;;4992616;28;20034;-80
2023/06/25 09:28:31;;;;;;;6.88;3.28;;;29.60;51.60;;;;;;4992134;28;20038;-80
2023/06/25 09:30:57;;;;;;;6.93;3.42;;;29.70;51.50;;;;;;4992149;28;20093;-80
2023/06/25 09:33:31;;;;;;;7.45;3.40;;;29.70;51.20;;;;;;4992282;28;20089;-79
2023/06/25 09:36:04;;;;;;;5.72;3.13;;;29.70;51.30;;;;;;4992583;28;20034;-79
2023/06/25 09:38:30;;;;;;;5.97;3.33;;;29.60;50.50;;;;;;4992564;28;20147;-80
2023/06/25 09:41:01;;;;;;;8.13;3.75;;;29.60;51.20;;;;;;4992314;28;20030;-81
2023/06/25 09:43:28;;;;;;;7.57;3.95;;;29.60;50.60;;;;;;4992315;28;20073;-81
2023/06/25 09:45:55;;;;;;;6.97;3.08;;;29.60;51.40;;;;;;4992404;28;20113;-81
2023/06/25 09:48:24;;;;;;;8.60;3.55;;;29.70;51.50;;;;;;4992963;28;20035;-80
2023/06/25 09:50:51;;;;;;;6.45;3.35;;;29.70;51.30;;;;;;4992030;28;20038;-80
2023/06/25 09:53:20;;;;;;;6.25;3.05;;;29.80;50.80;;;;;;4992392;28;20034;-80
2023/06/25 09:55:46;;;;;;;8.20;3.97;;;29.80;51.00;;;;;;4974769;28;20492;-78
2023/06/25 09:58:13;;;;;;;8.30;3.80;;;29.80;50.90;;;;;;4993276;28;20054;-81
2023/06/25 10:00:39;;;;;;;6.70;2.65;;;29.80;50.80;;;;;;4994027;28;20065;-81
2023/06/25 10:03:05;;;;;;;6.60;3.40;;;29.90;50.40;;;;;;4993715;28;20484;-80
2023/06/25 10:05:32;;;;;;;7.10;2.92;;;29.90;50.50;;;;;;4996433;28;20038;-81
2023/06/25 10:07:58;;;;;;;7.78;3.03;;;29.90;50.80;;;;;;4996429;28;20030;-81
2023/06/25 10:10:27;;;;;;;7.70;3.15;;;30.00;50.50;;;;;;4995369;28;20034;-80
2023/06/25 10:12:53;;;;;;;8.57;3.70;;;30.00;50.70;;;;;;4996474;28;20412;-80
2023/06/25 10:15:33;;;;;;;7.57;3.80;;;30.20;50.50;;;;;;4996057;28;20029;-80
2023/06/25 10:18:02;;;;;;;7.85;3.83;;;30.30;50.40;;;;;;4995797;28;20112;-82
2023/06/25 10:20:37;;;;;;;7.82;3.05;;;30.40;50.40;;;;;;4995747;28;20026;-80
2023/06/25 10:23:11;;;;;;;7.18;2.92;;;30.40;49.70;;;;;;4995869;28;20408;-80
2023/06/25 10:25:39;;;;;;;6.57;3.17;;;30.40;50.00;;;;;;4995979;28;20144;-81
2023/06/25 10:28:09;;;;;;;8.02;3.40;;;30.40;49.90;;;;;;4995636;28;20038;-81
2023/06/25 10:30:46;;;;;;;6.05;3.20;;;30.40;49.50;;;;;;4978001;28;20042;-81
2023/06/25 10:33:17;;;;;;;7.22;3.20;;;30.40;48.10;;;;;;4995977;28;20516;-80
2023/06/25 10:35:46;;;;;;;6.13;3.42;;;30.40;49.70;;;;;;4995685;28;20030;-81
2023/06/25 10:38:12;;;;;;;8.55;3.60;;;30.50;49.70;;;;;;4995611;28;20105;-81
2023/06/25 10:40:39;;;;;;;6.88;3.20;;;30.50;49.10;;;;;;4995446;28;20449;-82
2023/06/25 10:43:05;;;;;;;10.82;3.10;;;30.50;48.50;;;;;;4995522;28;20089;-79
2023/06/25 10:45:32;;;;;;;7.35;3.15;;;30.40;48.30;;;;;;4995329;28;20093;-81
2023/06/25 10:48:07;;;;;;;7.88;3.35;;;30.50;49.10;;;;;;4995111;28;20073;-80
2023/06/25 10:50:34;;;;;;;8.40;3.38;;;30.60;48.30;;;;;;4995763;28;20499;-79
2023/06/25 10:53:02;;;;;;;5.80;3.03;;;30.60;48.20;;;;;;4998552;28;20038;-81
2023/06/25 10:55:28;;;;;;;5.82;3.20;;;30.60;48.00;;;;;;4995781;28;20085;-80
2023/06/25 10:57:54;;;;;;;9.20;3.40;;;30.60;48.30;;;;;;4994968;28;20129;-82
2023/06/25 11:00:25;;;;;;;6.78;2.95;;;30.70;48.30;;;;;;4995110;28;20084;-82
2023/06/25 11:02:52;;;;;;;7.13;3.30;;;30.80;48.40;;;;;;4994839;28;20086;-81
2023/06/25 11:05:19;;;;;;;6.63;2.97;;;30.90;48.60;;;;;;4995558;28;20447;-82
2023/06/25 11:07:45;;;;;;;7.18;3.55;;;31.00;48.80;;;;;;4994849;28;20507;-82
2023/06/25 11:10:12;;;;;;;6.78;3.28;;;31.00;48.20;;;;;;4994744;28;20038;-80
2023/06/25 11:12:38;;;;;;;7.43;3.28;;;31.10;48.20;;;;;;4994779;28;20045;-80
2023/06/25 11:15:05;;;;;;;9.73;3.65;;;31.10;48.10;;;;;;4993991;28;20034;-81
2023/06/25 11:17:30;;;;;;;8.35;3.13;;;31.20;47.50;;;;;;4994743;28;20038;-81
2023/06/25 11:19:57;;;;;;;6.20;3.20;;;31.30;47.70;;;;;;4994629;28;20036;-79
2023/06/25 11:22:23;;;;;;;6.05;3.10;;;31.40;48.00;;;;;;4994596;28;20040;-82
2023/06/25 11:24:50;;;;;;;8.13;3.20;;;31.40;47.90;;;;;;4994606;28;20031;-80
2023/06/25 11:27:27;;;;;;;8.73;3.45;;;31.40;47.30;;;;;;4994741;28;20038;-82
2023/06/25 11:29:54;;;;;;;8.65;3.58;;;31.40;46.60;;;;;;4997964;28;20045;-82
2023/06/25 11:32:24;;;;;;;7.68;3.60;;;31.30;46.60;;;;;;4994725;28;20093;-82
2023/06/25 11:34:50;;;;;;;6.95;3.33;;;31.30;46.50;;;;;;4996127;28;20118;-81
2023/06/25 11:37:19;;;;;;;6.57;2.92;;;31.40;46.20;;;;;;4995753;28;20551;-82
2023/06/25 11:39:50;;;;;;;12.90;11.00;;;31.40;46.80;;;;;;4995551;28;20161;-81
2023/06/25 11:42:18;;;;;;;6.07;4.22;;;31.50;47.70;;;;;;4994084;28;20042;-81
2023/06/25 11:44:45;;;;;;;7.53;3.20;;;31.60;46.80;;;;;;4994542;28;20065;-81
2023/06/25 11:47:13;;;;;;;7.50;3.53;;;31.70;46.90;;;;;;4994060;28;20058;-79
2023/06/25 11:49:39;;;;;;;6.00;3.38;;;31.80;47.20;;;;;;4993899;28;20041;-83
2023/06/25 11:52:05;;;;;;;9.55;3.58;;;31.90;46.60;;;;;;4993859;28;20128;-81
2023/06/25 11:54:31;;;;;;;7.28;3.70;;;31.90;46.10;;;;;;4993927;28;20396;-79
2023/06/25 11:56:56;;;;;;;6.15;3.33;;;32.10;46.50;;;;;;4998055;28;20042;-81
2023/06/25 11:59:22;;;;;;;5.45;3.10;;;32.10;46.00;;;;;;4993921;28;20427;-81
2023/06/25 12:01:48;;;;;;;8.68;3.80;;;32.20;46.00;;;;;;4993652;28;20045;-80
2023/06/25 12:04:14;;;;;;;9.50;3.22;;;32.30;46.00;;;;;;4993722;28;20507;-81
2023/06/25 12:06:40;;;;;;;5.88;3.20;;;32.40;45.60;;;;;;4993697;28;20030;-80
2023/06/25 12:09:06;;;;;;;9.10;3.28;;;32.40;45.10;;;;;;4994097;28;20035;-79
2023/06/25 12:11:31;;;;;;;7.47;3.65;;;32.50;45.60;;;;;;4993726;28;20046;-79
2023/06/25 12:13:57;;;;;;;7.00;3.20;;;32.50;45.60;;;;;;4993966;28;20385;-80
2023/06/25 12:16:23;;;;;;;6.28;3.08;;;32.60;45.70;;;;;;4993706;28;20042;-80
2023/06/25 12:18:48;;;;;;;5.93;3.28;;;32.70;46.90;;;;;;4993518;28;20041;-81
2023/06/25 12:21:14;;;;;;;6.53;3.33;;;32.60;47.60;;;;;;4993799;28;20519;-81
2023/06/25 12:23:40;;;;;;;6.63;3.15;;;32.60;47.90;;;;;;4994072;28;20081;-80
2023/06/25 12:26:06;;;;;;;5.78;3.10;;;32.70;48.40;;;;;;4992976;28;20049;-82
2023/06/25 12:28:31;;;;;;;7.00;3.20;;;32.60;48.30;;;;;;4992485;28;20038;-81
2023/06/25 12:30:57;;;;;;;7.22;3.00;;;32.60;48.60;;;;;;4993058;28;20038;-81
2023/06/25 12:33:23;;;;;;;7.85;2.92;;;32.70;48.50;;;;;;4975668;28;20042;-80
2023/06/25 12:35:49;;;;;;;6.78;2.97;;;32.70;48.60;;;;;;4993077;28;20493;-81
2023/06/25 12:38:14;;;;;;;7.35;3.20;;;32.70;48.80;;;;;;4993242;28;20038;-82
2023/06/25 12:40:40;;;;;;;5.88;3.08;;;32.80;48.60;;;;;;4993127;28;20072;-81